Time;durP1;ratioP1;P1;durP2;ratioP2;P2;SDS_P1;SDS_P2;PMS_P1;PMS_P2;Temp;Humidity;BMP_temperature;BMP_pressure;BME280_temperature;BME280_humidity;BME280_pressure;Samples;Min_cycle;Max_cycle;Signal;HPM_P1;HPM_P2
2023/03/25 00:03:32;;;;;;;1.73;1.47;;;;;;;11.85;51.16;99206.41;10338537;28;20213;-36
2023/03/25 00:08:35;;;;;;;3.77;2.20;;;;;;;11.44;50.66;99198.31;10337785;28;20248;-36
2023/03/25 00:13:36;;;;;;;3.43;2.33;;;;;;;10.99;50.23;99168.56;10349889;28;20225;-35
2023/03/25 00:18:38;;;;;;;3.37;2.30;;;;;;;11.51;49.82;99190.28;10358922;28;20676;-36
2023/03/25 00:23:41;;;;;;;2.83;2.07;;;;;;;11.75;49.15;99196.91;10360075;28;20237;-36
2023/03/25 00:28:42;;;;;;;2.90;2.10;;;;;;;9.94;51.40;99048.41;10351243;28;20248;-37
2023/03/25 00:33:44;;;;;;;2.30;2.10;;;;;;;11.31;49.59;99194.81;10351338;28;20233;-36
2023/03/25 00:38:47;;;;;;;4.97;2.10;;;;;;;11.71;49.70;99209.09;10348613;28;20249;-36
2023/03/25 00:43:51;;;;;;;4.50;2.73;;;;;;;11.77;50.42;99184.13;10358095;28;20276;-37
2023/03/25 00:48:53;;;;;;;2.60;1.90;;;;;;;10.90;51.30;99132.31;10350634;28;20244;-36
2023/03/25 00:53:59;;;;;;;3.50;2.00;;;;;;;10.51;52.96;99115.06;10347922;28;20260;-36
2023/03/25 00:59:00;;;;;;;2.80;2.10;;;;;;;8.98;55.84;98995.59;10353938;28;20332;-36
2023/03/25 01:04:02;;;;;;;3.30;2.20;;;;;;;8.81;56.95;98951.50;10348390;28;20684;-36
2023/03/25 01:09:08;;;;;;;6.13;2.60;;;;;;;10.21;54.29;99122.53;10348913;28;21513;-36
2023/03/25 01:14:15;;;;;;;2.73;1.90;;;;;;;10.36;53.25;99133.97;10354053;28;20230;-36
2023/03/25 01:19:16;;;;;;;3.27;1.97;;;;;;;10.12;53.86;99159.31;10348330;28;20233;-37
2023/03/25 01:24:18;;;;;;;3.67;1.97;;;;;;;9.93;53.58;99142.97;10359466;28;20237;-37
2023/03/25 01:29:20;;;;;;;3.77;1.60;;;;;;;10.64;52.49;99194.56;10362183;28;20237;-38
2023/03/25 01:34:23;;;;;;;4.20;2.30;;;;;;;10.30;53.41;99196.25;10352951;28;20222;-37
2023/03/25 01:39:25;;;;;;;4.13;2.00;;;;;;;10.41;53.45;99192.19;10352329;28;20695;-37
2023/03/25 01:44:28;;;;;;;2.33;2.23;;;;;;;10.94;51.64;99195.13;10353969;28;20249;-37
2023/03/25 01:49:43;;;;;;;3.90;2.07;;;;;;;10.65;52.22;99174.81;10356150;28;20241;-37
2023/03/25 02:01:12;;;;;;;2.30;2.10;;;;;;;11.31;50.17;99173.38;10341763;28;20232;-37
2023/03/25 02:06:19;;;;;;;2.20;2.07;;;;;;;10.57;51.02;99142.88;10354255;28;20298;-37
2023/03/25 02:11:24;;;;;;;1.50;1.40;;;;;;;11.11;49.86;99163.44;10353854;28;20229;-37
2023/03/25 02:16:41;;;;;;;4.17;2.10;;;;;;;10.73;50.81;99165.78;10353070;28;20210;-37
2023/03/25 02:22:10;;;;;;;4.30;1.70;;;;;;;11.04;49.61;99158.06;10356972;28;20239;-37
2023/03/25 02:27:32;;;;;;;1.80;1.70;;;;;;;11.34;49.79;99184.50;10356877;28;20262;-37
2023/03/25 02:32:49;;;;;;;1.97;1.87;;;;;;;10.23;50.18;99148.06;10366205;28;20253;-37
2023/03/25 02:38:26;;;;;;;1.60;1.50;;;;;;;12.03;48.59;99213.81;10353694;28;20298;-37
2023/03/25 02:43:38;;;;;;;1.80;1.70;;;;;;;10.12;51.14;99153.97;10362088;28;20231;-37
2023/03/25 02:48:53;;;;;;;2.20;1.70;;;;;;;10.30;51.50;99197.06;10352746;28;20609;-37
2023/03/25 02:53:59;;;;;;;2.13;1.97;;;;;;;8.94;54.17;99094.88;10353375;28;20312;-37
2023/03/25 02:59:03;;;;;;;2.00;1.90;;;;;;;10.77;51.46;99188.47;10347249;28;20244;-36
2023/03/25 03:04:05;;;;;;;3.63;1.67;;;;;;;10.03;51.73;99163.19;10345400;28;20257;-37
2023/03/25 03:09:44;;;;;;;1.70;1.60;;;;;;;10.47;51.06;99194.88;10350621;28;20242;-36
2023/03/25 03:15:21;;;;;;;2.23;1.90;;;;;;;10.41;50.50;99190.34;10355325;28;20939;-37
2023/03/25 03:20:33;;;;;;;2.20;1.90;;;;;;;10.92;49.70;99212.41;10353856;28;20241;-37
2023/03/25 03:25:46;;;;;;;2.27;1.80;;;;;;;11.32;48.44;99201.78;10358623;28;20244;-37
2023/03/25 03:31:05;;;;;;;3.50;2.07;;;;;;;11.49;48.51;99219.16;10348212;28;20239;-37
2023/03/25 03:36:15;;;;;;;2.00;1.83;;;;;;;10.24;49.52;99197.88;10348424;28;20234;-37
2023/03/25 03:41:22;;;;;;;2.60;2.00;;;;;;;11.14;49.20;99229.19;10340942;28;20747;-37
2023/03/25 03:46:57;;;;;;;3.43;1.90;;;;;;;11.04;49.14;99225.00;10355802;28;20229;-36
2023/03/25 03:52:09;;;;;;;2.37;1.90;;;;;;;9.99;51.20;99193.97;10358002;28;20619;-36
2023/03/25 03:57:21;;;;;;;2.80;2.60;;;;;;;10.34;50.52;99213.53;10353097;28;20202;-37
2023/03/25 04:02:34;;;;;;;1.80;1.70;;;;;;;10.26;50.54;99219.88;10342575;28;20211;-37
2023/03/25 04:07:44;;;;;;;2.33;2.10;;;;;;;9.94;49.95;99206.09;10321231;28;20288;-36
2023/03/25 04:12:59;;;;;;;5.17;2.40;;;;;;;10.24;49.86;99237.13;10359079;28;20244;-36
2023/03/25 04:18:02;;;;;;;5.03;2.13;;;;;;;11.30;47.98;99238.69;10356538;28;20881;-36
2023/03/25 04:23:04;;;;;;;4.23;2.40;;;;;;;10.91;48.48;99246.38;10357656;28;20260;-37
2023/03/25 04:28:06;;;;;;;2.57;2.03;;;;;;;11.65;47.32;99239.38;10358031;28;20610;-37
2023/03/25 04:33:07;;;;;;;5.47;2.50;;;;;;;10.83;47.92;99236.69;10353761;28;20611;-37
2023/03/25 04:38:10;;;;;;;5.53;2.37;;;;;;;10.94;48.17;99229.09;10361365;28;20260;-36
2023/03/25 04:43:16;;;;;;;4.30;2.47;;;;;;;10.78;48.06;99239.13;10358637;28;20786;-36
2023/03/25 04:48:28;;;;;;;5.20;2.73;;;;;;;10.24;48.24;99216.59;10356309;28;20247;-37
2023/03/25 04:53:30;;;;;;;4.80;2.20;;;;;;;10.56;47.22;99216.13;10354383;28;20248;-36
2023/03/25 04:58:32;;;;;;;4.83;2.23;;;;;;;10.65;47.04;99225.66;10358202;28;20581;-36
2023/03/25 05:03:38;;;;;;;5.67;2.43;;;;;;;11.92;45.89;99267.03;10355444;28;20890;-36
2023/03/25 05:08:40;;;;;;;5.97;2.57;;;;;;;10.65;47.27;99236.38;10357167;28;20229;-36
2023/03/25 05:13:42;;;;;;;6.10;2.67;;;;;;;12.10;45.47;99269.09;10356277;28;20227;-36
2023/03/25 05:18:43;;;;;;;7.70;2.77;;;;;;;9.81;47.92;99178.41;10355459;28;20236;-36
2023/03/25 05:23:45;;;;;;;6.50;2.47;;;;;;;10.56;47.60;99253.59;10356751;28;20239;-36
2023/03/25 05:28:50;;;;;;;5.97;2.10;;;;;;;11.02;46.01;99261.88;10354682;28;20241;-36
2023/03/25 05:33:53;;;;;;;4.80;2.80;;;;;;;11.13;46.78;99273.03;10353527;28;20247;-37
2023/03/25 05:38:55;;;;;;;8.57;3.10;;;;;;;12.28;45.02;99289.94;10351606;28;20234;-37
2023/03/25 05:43:59;;;;;;;5.33;3.27;;;;;;;11.34;46.33;99275.59;10353630;28;20229;-36
2023/03/25 05:49:00;;;;;;;7.07;2.60;;;;;;;11.22;46.12;99264.63;10352998;28;20234;-36
2023/03/25 05:54:07;;;;;;;4.07;2.40;;;;;;;11.80;46.00;99269.50;10354326;28;20259;-38
2023/03/25 05:59:09;;;;;;;4.63;2.43;;;;;;;11.23;46.16;99238.66;10354793;28;20241;-35
2023/03/25 06:04:12;;;;;;;6.97;2.50;;;;;;;11.74;46.04;99270.34;10353385;28;20226;-36
2023/03/25 06:09:14;;;;;;;6.17;3.20;;;;;;;11.30;46.64;99239.50;10348923;28;20237;-38
2023/03/25 06:14:15;;;;;;;5.50;2.40;;;;;;;12.11;45.38;99253.81;10352596;28;20231;-38
2023/03/25 06:19:17;;;;;;;4.37;2.20;;;;;;;10.15;49.10;99137.53;10351016;28;20229;-37
2023/03/25 06:24:19;;;;;;;7.37;2.60;;;;;;;10.79;49.39;99219.34;10343993;28;20229;-38
2023/03/25 06:29:21;;;;;;;4.17;2.10;;;;;;;9.61;52.37;99096.25;10346643;28;20339;-35
2023/03/25 06:34:22;;;;;;;5.87;2.70;;;;;;;10.69;49.76;99221.53;10340997;28;20610;-35
2023/03/25 06:39:25;;;;;;;4.47;2.90;;;;;;;11.62;48.44;99210.28;10347104;28;20237;-37
2023/03/25 06:44:27;;;;;;;2.70;2.37;;;;;;;9.11;51.81;99044.72;10348180;28;20225;-37
2023/03/25 06:49:29;;;;;;;2.87;2.30;;;;;;;10.81;49.82;99217.31;10348270;28;20256;-36
2023/03/25 06:54:30;;;;;;;4.70;2.57;;;;;;;10.60;50.27;99204.84;10346847;28;20221;-36
2023/03/25 06:59:32;;;;;;;2.63;2.10;;;;;;;10.66;50.61;99196.03;10350134;28;20237;-36
2023/03/25 07:04:34;;;;;;;4.27;2.30;;;;;;;11.91;47.95;99174.25;10345830;28;20687;-36
2023/03/25 07:09:35;;;;;;;2.73;2.40;;;;;;;10.57;50.24;99183.84;10341704;28;20237;-36
2023/03/25 07:14:37;;;;;;;3.23;1.93;;;;;;;11.48;49.26;99192.56;10341780;28;20239;-36
2023/03/25 07:19:39;;;;;;;4.00;2.27;;;;;;;11.37;49.19;99207.38;10409236;22;20240;-37
2023/03/25 07:24:41;;;;;;;4.03;2.60;;;;;;;11.34;48.52;99197.06;10396957;28;20232;-37
2023/03/25 07:29:43;;;;;;;2.27;2.07;;;;;;;10.39;49.71;99154.94;10391334;28;20246;-37
2023/03/25 07:34:45;;;;;;;3.33;2.20;;;;;;;9.79;51.97;99093.09;10393501;28;20578;-37
2023/03/25 07:39:47;;;;;;;2.87;2.17;;;;;;;10.52;50.66;99184.41;10394376;28;20243;-37
2023/03/25 07:44:48;;;;;;;3.20;2.10;;;;;;;9.18;53.04;99066.97;10396185;28;20236;-37
2023/03/25 07:49:50;;;;;;;2.73;2.53;;;;;;;9.30;53.57;99108.16;10392657;28;20326;-36
2023/03/25 07:54:52;;;;;;;3.23;2.10;;;;;;;10.94;50.63;99184.41;10392080;28;20229;-37
2023/03/25 07:59:53;;;;;;;3.50;2.10;;;;;;;9.85;53.17;99135.09;10391303;28;20243;-37
2023/03/25 08:04:56;;;;;;;1.60;1.50;;;;;;;9.07;54.53;99073.66;10392278;28;20251;-37
2023/03/25 08:09:58;;;;;;;2.27;2.10;;;;;;;8.40;56.33;98994.81;10395016;28;20242;-37
2023/03/25 08:14:59;;;;;;;1.77;1.67;;;;;;;8.75;57.19;99081.13;10390983;28;20736;-37
2023/03/25 08:20:03;;;;;;;3.27;2.20;;;;;;;10.26;53.65;99181.59;10383056;28;20238;-37
2023/03/25 08:25:06;;;;;;;2.43;2.23;;;;;;;10.90;52.94;99164.44;10390807;28;20235;-37
2023/03/25 08:30:09;;;;;;;4.67;2.20;;;;;;;11.53;51.48;99177.50;10387068;28;20234;-37
2023/03/25 08:35:12;;;;;;;2.90;2.00;;;;;;;10.16;53.95;99179.31;10386692;28;20237;-37
2023/03/25 08:40:16;;;;;;;3.27;1.97;;;;;;;10.22;53.80;99201.75;10392199;28;20267;-37
2023/03/25 08:45:18;;;;;;;2.67;2.27;;;;;;;12.13;50.87;99219.56;10393397;28;20328;-37
2023/03/25 08:50:19;;;;;;;3.20;2.40;;;;;;;10.65;52.72;99212.28;10386754;28;20228;-37
2023/03/25 08:55:22;;;;;;;2.57;1.83;;;;;;;11.72;51.93;99250.94;10385891;28;20231;-38
2023/03/25 09:00:26;;;;;;;2.37;2.17;;;;;;;11.78;51.50;99212.59;10388616;28;20250;-37
2023/03/25 09:05:27;;;;;;;3.63;2.70;;;;;;;11.16;52.98;99254.72;10383244;28;20225;-38
2023/03/25 09:10:29;;;;;;;5.23;3.70;;;;;;;12.73;49.68;99222.97;10393539;28;20235;-38
2023/03/25 09:15:31;;;;;;;3.57;2.47;;;;;;;11.23;52.71;99217.22;10394808;28;20224;-38
2023/03/25 09:20:33;;;;;;;3.63;3.17;;;;;;;11.37;53.70;99221.59;10385530;28;20701;-38
2023/03/25 09:25:36;;;;;;;4.57;2.63;;;;;;;11.51;53.76;99219.75;10394174;28;20559;-38
2023/03/25 09:30:38;;;;;;;3.33;2.80;;;;;;;11.42;53.46;99210.25;10383094;28;20288;-38
2023/03/25 09:35:40;;;;;;;2.60;2.43;;;;;;;12.50;53.10;99218.09;10389811;28;20232;-38
2023/03/25 09:40:43;;;;;;;2.70;2.37;;;;;;;12.27;52.95;99220.41;10395878;28;20247;-37
2023/03/25 09:45:46;;;;;;;2.10;1.90;;;;;;;13.39;51.00;99255.13;10386241;28;20895;-38
2023/03/25 09:50:48;;;;;;;2.27;2.07;;;;;;;11.36;53.21;99225.31;10386241;28;20228;-38
2023/03/25 09:55:50;;;;;;;5.77;2.60;;;;;;;13.02;50.40;99217.25;10392279;28;20263;-38
2023/03/25 10:01:02;;;;;;;2.27;1.70;;;;;;;13.43;49.68;99240.19;10384331;28;20237;-38
2023/03/25 10:06:20;;;;;;;2.77;2.47;;;;;;;10.03;52.75;98976.88;10388811;28;20371;-38
2023/03/25 10:12:00;;;;;;;2.87;2.20;;;;;;;13.26;49.46;99231.78;10386958;28;20308;-38
2023/03/25 10:17:33;;;;;;;2.17;1.97;;;;;;;12.37;49.45;99200.13;10387180;28;20233;-38
2023/03/25 10:22:41;;;;;;;2.73;2.53;;;;;;;13.46;48.55;99234.41;10386520;28;20233;-38
2023/03/25 10:27:50;;;;;;;10.13;3.03;;;;;;;12.89;47.70;99226.19;10387581;28;20233;-38
2023/03/25 10:32:58;;;;;;;4.93;2.60;;;;;;;13.53;46.02;99220.91;10383394;28;20696;-38
2023/03/25 10:38:28;;;;;;;3.23;2.23;;;;;;;12.04;46.51;99154.59;10385799;28;20261;-38
2023/03/25 10:43:37;;;;;;;5.60;2.90;;;;;;;12.43;45.88;99208.38;10388958;28;20241;-37
2023/03/25 10:48:38;;;;;;;4.23;2.50;;;;;;;12.99;45.05;99221.22;10384728;28;20741;-37
2023/03/25 10:53:43;;;;;;;4.13;2.40;;;;;;;12.61;46.50;99234.59;10385082;28;21000;-37
2023/03/25 10:58:49;;;;;;;3.07;2.47;;;;;;;12.05;46.67;99199.19;10380856;28;20736;-38
2023/03/25 11:06:35;;;;;;;6.97;1.90;;;;;;;8.52;53.70;99243.13;10551824;27;20318;-67
2023/03/25 11:11:37;;;;;;;4.60;2.93;;;;;;;9.59;53.45;99302.16;10376324;28;20234;-67
2023/03/25 11:16:43;;;;;;;3.67;2.43;;;;;;;10.95;51.45;99303.88;10377720;28;20233;-68
2023/03/25 11:21:47;;;;;;;4.20;2.70;;;;;;;11.00;50.98;99322.00;10379942;28;20240;-68
2023/03/25 11:26:51;;;;;;;2.97;2.00;;;;;;;11.12;50.02;99295.47;10381264;28;20232;-69
2023/03/25 11:32:12;;;;;;;5.27;2.50;;;;;;;9.89;51.22;99264.66;10378678;28;20243;-69
2023/03/25 11:37:15;;;;;;;2.33;1.87;;;;;;;11.16;50.97;99323.53;10389152;28;20231;-70
2023/03/25 11:42:41;;;;;;;6.37;2.33;;;;;;;10.07;52.07;99314.13;10429386;28;20242;-69
2023/03/25 11:47:43;;;;;;;5.90;2.40;;;;;;;10.44;50.98;99312.16;10426198;28;20262;-69
2023/03/25 11:52:46;;;;;;;5.60;2.50;;;;;;;10.85;51.00;99319.47;10434417;28;20241;-69
2023/03/25 11:57:49;;;;;;;10.77;2.60;;;;;;;10.14;51.08;99290.94;10416685;28;20244;-69
2023/03/25 12:03:24;;;;;;;3.20;2.27;;;;;;;11.72;50.19;99325.16;10382543;28;20264;-69
2023/03/25 12:08:40;;;;;;;2.00;1.80;;;;;;;11.87;49.07;99316.94;10387218;28;20228;-69
2023/03/25 12:13:54;;;;;;;4.13;2.70;;;;;;;11.19;49.59;99281.09;10374394;28;20221;-65
2023/03/25 12:19:23;;;;;;;5.27;2.30;;;;;;;11.80;49.08;99312.38;10355769;28;20236;-68
2023/03/25 12:24:50;;;;;;;3.27;2.10;;;;;;;12.22;47.14;99309.53;10397681;28;20236;-68
2023/03/25 12:30:21;;;;;;;2.80;2.17;;;;;;;11.30;47.00;99268.97;10372801;28;20243;-68
2023/03/25 12:35:41;;;;;;;3.33;2.00;;;;;;;12.67;43.97;99335.72;10395062;28;20339;-68
2023/03/25 12:41:10;;;;;;;2.70;2.00;;;;;;;11.32;43.36;99261.56;10357420;28;20257;-68
2023/03/25 12:46:34;;;;;;;2.27;2.03;;;;;;;12.50;43.29;99314.72;10400008;28;20237;-69
2023/03/25 12:52:02;;;;;;;3.50;2.10;;;;;;;12.03;42.12;99297.78;10392539;28;20233;-68
2023/03/25 12:57:27;;;;;;;3.57;2.40;;;;;;;11.83;42.84;99291.56;10394043;28;20236;-69
2023/03/25 13:02:37;;;;;;;4.33;2.40;;;;;;;12.34;42.58;99329.34;10350960;28;20245;-70
2023/03/25 13:07:47;;;;;;;3.07;2.23;;;;;;;12.61;42.06;99333.91;10352592;28;20287;-73
2023/03/25 13:12:58;;;;;;;3.10;2.30;;;;;;;11.32;46.19;99306.25;10360427;28;20237;-73
2023/03/25 13:18:07;;;;;;;5.33;2.43;;;;;;;12.81;46.07;99333.84;10377017;28;20227;-73
2023/03/25 13:23:16;;;;;;;2.63;2.10;;;;;;;13.17;45.37;99330.63;10377107;28;20233;-69
2023/03/25 13:28:28;;;;;;;5.03;2.40;;;;;;;12.34;45.13;99273.00;10349777;28;20252;-68
2023/03/25 13:33:36;;;;;;;4.73;2.23;;;;;;;13.29;43.81;99310.16;10352675;28;20251;-64
2023/03/25 13:38:48;;;;;;;5.10;2.00;;;;;;;12.32;44.48;99287.66;10358261;28;20253;-69
2023/03/25 13:44:15;;;;;;;3.50;1.90;;;;;;;12.96;44.24;99299.53;10358684;28;20241;-69
2023/03/25 13:49:16;;;;;;;5.67;2.37;;;;;;;11.51;45.82;99270.66;10356607;28;20328;-68
2023/03/25 13:54:32;;;;;;;2.80;1.97;;;;;;;10.95;46.76;99234.25;10362270;28;20229;-67
2023/03/25 13:59:56;;;;;;;2.30;1.87;;;;;;;11.98;45.10;99258.16;10351298;28;20316;-69
2023/03/25 14:05:00;;;;;;;5.53;2.37;;;;;;;12.33;44.54;99249.91;10365702;28;20281;-67
2023/03/25 14:10:22;;;;;;;5.43;2.23;;;;;;;12.83;44.35;99244.00;10393631;28;20233;-73
2023/03/25 14:15:34;;;;;;;3.57;2.17;;;;;;;13.25;43.58;99255.16;10351679;28;20268;-68
2023/03/25 14:20:38;;;;;;;2.30;2.10;;;;;;;12.48;44.47;99230.88;10347058;28;20237;-67
2023/03/25 14:25:51;;;;;;;5.57;2.20;;;;;;;12.44;43.13;99237.69;10347585;28;20234;-71
2023/03/25 14:31:12;;;;;;;2.57;1.77;;;;;;;12.38;43.01;99206.31;10345387;28;20237;-68
2023/03/25 14:36:41;;;;;;;4.10;2.00;;;;;;;12.60;39.93;99212.28;10344824;28;20241;-69
2023/03/25 14:42:01;;;;;;;4.27;2.33;;;;;;;12.60;39.63;99217.63;10346566;28;20241;-71
2023/03/25 14:47:20;;;;;;;4.17;2.50;;;;;;;13.10;39.26;99236.63;10343108;28;20271;-70
2023/03/25 14:52:42;;;;;;;3.00;1.93;;;;;;;12.85;39.64;99211.56;10352686;28;20225;-68
2023/03/25 14:57:46;;;;;;;4.47;2.07;;;;;;;13.00;39.16;99216.66;10350750;28;20242;-68
2023/03/25 15:03:07;;;;;;;3.63;1.97;;;;;;;12.83;38.58;99230.56;10350424;28;20264;-70
2023/03/25 15:08:13;;;;;;;3.23;2.07;;;;;;;13.26;39.62;99213.00;10350444;28;20319;-68
2023/03/25 15:13:18;;;;;;;2.67;2.40;;;;;;;13.08;39.54;99190.38;10346023;28;20873;-70
2023/03/25 15:18:35;;;;;;;3.00;2.00;;;;;;;13.10;39.10;99198.22;10351162;28;20225;-69
2023/03/25 15:23:48;;;;;;;4.30;2.10;;;;;;;13.50;38.84;99176.50;10343611;28;20840;-68
2023/03/25 15:28:52;;;;;;;3.93;1.80;;;;;;;13.39;38.83;99214.81;10354666;28;20237;-70
2023/03/25 15:34:36;;;;;;;2.67;2.03;;;;;;;11.36;39.73;99063.78;10344911;28;20249;-69
2023/03/25 15:40:14;;;;;;;4.17;1.97;;;;;;;13.34;38.92;99185.09;10350244;28;20343;-67
2023/03/25 15:45:29;;;;;;;2.80;2.03;;;;;;;13.25;39.18;99179.94;10365920;28;20236;-67
2023/03/25 15:50:33;;;;;;;4.00;2.40;;;;;;;14.22;38.00;99178.75;10397959;28;20259;-70
2023/03/25 15:55:40;;;;;;;2.50;2.10;;;;;;;13.82;38.97;99171.06;10406490;28;20233;-70
2023/03/25 16:00:47;;;;;;;3.57;2.20;;;;;;;12.40;40.30;99091.59;10438833;28;20224;-68
2023/03/25 16:05:57;;;;;;;3.77;2.63;;;;;;;12.99;39.66;99143.34;10442164;28;20344;-68
2023/03/25 16:11:17;;;;;;;4.63;2.10;;;;;;;13.25;39.24;99138.81;10430847;28;20231;-68
2023/03/25 16:16:20;;;;;;;3.43;1.80;;;;;;;13.55;39.01;99140.88;10433364;28;20220;-69
2023/03/25 16:21:21;;;;;;;4.73;2.17;;;;;;;13.55;39.48;99125.59;10450067;28;20211;-68
2023/03/25 16:26:41;;;;;;;2.90;2.00;;;;;;;14.37;38.31;99129.94;10442049;28;20265;-68
2023/03/25 16:32:02;;;;;;;4.17;1.70;;;;;;;13.93;39.41;99148.00;10432234;28;20766;-67
2023/03/25 16:37:05;;;;;;;3.30;2.00;;;;;;;14.04;39.41;99134.63;10435631;28;20257;-70
2023/03/25 16:42:31;;;;;;;6.53;2.20;;;;;;;14.49;38.82;99136.22;10439548;28;20925;-68
2023/03/25 16:47:33;;;;;;;8.80;3.17;;;;;;;15.39;37.47;99142.66;10440848;28;20225;-70
2023/03/25 16:52:35;;;;;;;6.87;2.43;;;;;;;14.09;38.79;99109.78;10443389;28;20231;-68
2023/03/25 16:57:39;;;;;;;6.63;2.47;;;;;;;12.94;39.52;99067.97;10443487;28;20235;-72
2023/03/25 17:02:42;;;;;;;4.13;2.50;;;;;;;13.71;39.65;99112.63;10413204;28;20633;-67
2023/03/25 17:07:47;;;;;;;15.33;9.43;;;;;;;12.91;39.90;99057.66;10423831;28;20290;-66
2023/03/25 17:12:55;;;;;;;6.27;4.80;;;;;;;12.88;40.09;99063.47;10439925;28;20323;-70
2023/03/25 17:18:01;;;;;;;3.73;2.80;;;;;;;13.23;39.70;99074.56;10447684;28;20706;-68
2023/03/25 17:23:17;;;;;;;3.47;2.00;;;;;;;12.98;39.70;99076.41;10435480;28;20651;-70
2023/03/25 17:28:58;;;;;;;2.13;1.93;;;;;;;12.11;40.89;99010.59;10421768;28;20715;-73
2023/03/25 17:34:17;;;;;;;3.97;2.10;;;;;;;12.98;40.34;99116.69;10439898;28;20311;-73
2023/03/25 17:39:25;;;;;;;2.97;2.67;;;;;;;12.33;41.35;99088.09;10439935;28;20235;-69
2023/03/25 17:44:37;;;;;;;4.03;2.13;;;;;;;12.72;41.38;99139.94;10435640;28;20236;-66
2023/03/25 17:49:39;;;;;;;3.83;2.43;;;;;;;13.01;40.92;99153.84;10432125;28;20238;-68
2023/03/25 17:54:41;;;;;;;4.57;2.33;;;;;;;11.68;42.90;99058.59;10439405;28;20233;-68
2023/03/25 17:59:43;;;;;;;2.63;1.80;;;;;;;13.40;41.34;99163.53;10441810;28;20294;-68
2023/03/25 18:04:45;;;;;;;4.83;2.50;;;;;;;12.49;42.05;99146.66;10434122;28;20349;-69
2023/03/25 18:09:47;;;;;;;9.57;7.27;;;;;;;12.35;42.38;99134.28;10435393;28;20323;-68
2023/03/25 18:14:49;;;;;;;4.57;2.47;;;;;;;12.02;43.21;99126.38;10436156;28;20235;-74
2023/03/25 18:19:51;;;;;;;2.80;1.93;;;;;;;11.80;43.21;99081.84;10429639;28;20243;-70
2023/03/25 18:24:53;;;;;;;2.90;1.90;;;;;;;12.29;43.15;99151.25;10441113;28;20234;-68
2023/03/25 18:29:55;;;;;;;2.20;2.00;;;;;;;12.81;41.79;99162.84;10443766;28;20232;-69
2023/03/25 18:34:56;;;;;;;3.27;2.30;;;;;;;11.66;44.12;99123.13;10434938;28;20240;-67
2023/03/25 18:39:58;;;;;;;2.50;1.90;;;;;;;11.33;44.20;99096.31;10442107;28;20719;-70
2023/03/25 18:45:00;;;;;;;2.03;1.83;;;;;;;12.16;43.85;99179.78;10438422;28;20228;-70
2023/03/25 18:50:16;;;;;;;4.27;2.00;;;;;;;11.94;44.17;99167.63;10439028;28;20246;-67
2023/03/25 18:55:18;;;;;;;6.30;2.20;;;;;;;10.84;45.04;99061.66;10436164;28;20227;-71
2023/03/25 19:00:23;;;;;;;4.00;2.10;;;;;;;11.29;45.16;99137.91;10426489;28;20236;-70
2023/03/25 19:05:24;;;;;;;2.20;2.00;;;;;;;12.90;43.15;99185.72;10436256;28;20224;-71
2023/03/25 19:10:31;;;;;;;3.43;1.90;;;;;;;12.37;44.20;99204.69;10425697;28;20242;-70
2023/03/25 19:15:32;;;;;;;2.13;1.93;;;;;;;11.13;45.74;99125.75;10440869;28;20710;-73
2023/03/25 19:20:35;;;;;;;3.17;2.03;;;;;;;11.33;45.41;99192.75;10420335;28;20877;-72
2023/03/25 19:25:36;;;;;;;2.40;2.20;;;;;;;12.50;44.56;99202.00;10442947;28;20242;-75
2023/03/25 19:30:38;;;;;;;2.70;2.50;;;;;;;12.32;44.19;99236.69;10448200;28;20235;-71
2023/03/25 19:35:40;;;;;;;2.23;1.73;;;;;;;11.99;44.48;99237.53;10445703;28;20231;-68
2023/03/25 19:40:42;;;;;;;3.77;1.80;;;;;;;13.09;43.60;99237.69;10445163;28;20239;-68
2023/03/25 19:45:44;;;;;;;2.83;2.10;;;;;;;13.24;43.20;99236.56;10432425;28;20227;-68
2023/03/25 19:50:46;;;;;;;5.37;2.10;;;;;;;12.00;44.43;99250.75;10424682;28;20740;-70
2023/03/25 19:55:50;;;;;;;6.00;3.10;;;;;;;12.83;43.60;99241.31;10451357;28;20250;-72
2023/03/25 20:00:52;;;;;;;4.70;2.50;;;;;;;11.88;44.27;99230.09;10433198;28;20365;-73
2023/03/25 20:05:59;;;;;;;5.23;2.03;;;;;;;11.35;45.32;99212.94;10448562;28;20320;-75
2023/03/25 20:11:08;;;;;;;3.87;2.30;;;;;;;12.06;43.87;99257.13;10429032;28;20232;-73
2023/03/25 20:16:10;;;;;;;4.00;2.00;;;;;;;10.72;45.87;99156.94;10450238;28;20761;-71
2023/03/25 20:21:11;;;;;;;4.93;2.43;;;;;;;12.13;45.27;99257.13;10429540;28;20282;-72
2023/03/25 20:26:13;;;;;;;4.57;2.70;;;;;;;11.37;45.25;99213.56;10444852;28;20324;-72
2023/03/25 20:31:21;;;;;;;5.43;3.33;;;;;;;11.99;45.69;99261.66;10446504;28;20224;-74
2023/03/25 20:36:23;;;;;;;4.23;2.33;;;;;;;12.80;43.99;99239.03;10447465;28;20227;-73
2023/03/25 20:41:25;;;;;;;4.63;2.50;;;;;;;12.23;44.93;99259.38;10448344;28;20205;-73
2023/03/25 20:46:30;;;;;;;3.23;2.60;;;;;;;12.81;44.06;99259.50;10449395;28;20638;-68
2023/03/25 20:51:35;;;;;;;4.43;2.70;;;;;;;11.48;45.77;99222.03;10422566;28;20773;-75
2023/03/25 20:56:36;;;;;;;4.93;2.40;;;;;;;9.71;48.80;99078.03;10447941;28;20619;-74
2023/03/25 21:01:41;;;;;;;4.70;2.20;;;;;;;10.56;47.85;99210.78;10447683;28;20235;-67
2023/03/25 21:06:43;;;;;;;2.40;2.20;;;;;;;11.99;45.77;99267.03;10454903;28;20335;-69
2023/03/25 21:11:46;;;;;;;2.50;2.23;;;;;;;10.78;47.45;99233.78;10446577;28;20251;-67
2023/03/25 21:16:48;;;;;;;3.70;2.80;;;;;;;11.36;46.55;99273.53;10441154;28;20625;-71
2023/03/25 21:21:49;;;;;;;5.10;3.10;;;;;;;12.27;45.69;99242.69;10431654;28;20716;-68
2023/03/25 21:26:51;;;;;;;4.80;2.47;;;;;;;11.61;46.39;99272.97;10451066;28;20238;-65
2023/03/25 21:31:53;;;;;;;4.00;2.57;;;;;;;11.57;45.64;99277.88;10458902;28;20331;-65
2023/03/25 21:36:55;;;;;;;5.00;2.50;;;;;;;;;;10449156;28;20706;-64
2023/03/25 21:41:56;;;;;;;4.40;2.37;;;;;;;11.94;45.65;99264.16;10448302;28;20236;-68
2023/03/25 21:47:10;;;;;;;2.37;2.00;;;;;;;9.85;48.24;99073.63;10446747;28;20277;-71
2023/03/25 21:52:12;;;;;;;2.63;2.20;;;;;;;12.97;45.18;99230.50;10448516;28;20742;-69
2023/03/25 21:57:14;;;;;;;5.67;2.53;;;;;;;11.84;45.74;99253.81;10450686;28;20323;-70
2023/03/25 22:02:16;;;;;;;4.87;3.00;;;;;;;12.57;45.11;99236.03;10440834;28;20279;-67
2023/03/25 22:07:17;;;;;;;3.93;2.17;;;;;;;11.90;45.41;99246.84;10431367;28;20238;-66
2023/03/25 22:12:19;;;;;;;4.80;2.87;;;;;;;10.73;47.88;99201.41;10426179;28;20238;-70
2023/03/25 22:17:21;;;;;;;5.23;3.27;;;;;;;9.94;49.87;99154.50;10425491;28;20950;-74
2023/03/25 22:22:23;;;;;;;4.50;2.50;;;;;;;9.85;50.20;99171.69;10425955;28;20215;-70
2023/03/25 22:27:24;;;;;;;4.13;2.50;;;;;;;12.54;44.41;99232.72;10430005;28;20247;-69
2023/03/25 22:32:27;;;;;;;4.83;2.47;;;;;;;9.80;48.79;99083.22;10425353;28;20211;-69
2023/03/25 22:37:28;;;;;;;4.57;2.47;;;;;;;9.62;50.11;99145.16;10426951;28;20226;-68
2023/03/25 22:42:30;;;;;;;3.77;3.03;;;;;;;8.78;52.16;99079.94;10429184;28;20224;-70
2023/03/25 22:47:32;;;;;;;6.20;2.60;;;;;;;10.52;49.00;99245.94;10425610;28;20230;-68
2023/03/25 22:52:34;;;;;;;2.40;2.20;;;;;;;10.92;48.20;99264.09;10424766;28;20203;-67
2023/03/25 22:57:36;;;;;;;4.77;2.33;;;;;;;9.45;51.31;99174.84;10428178;28;20573;-68
2023/03/25 23:02:38;;;;;;;7.57;3.00;;;;;;;9.90;50.23;99250.25;10414382;28;20384;-67
2023/03/25 23:07:39;;;;;;;4.80;2.50;;;;;;;9.86;51.20;99234.81;10428259;28;20254;-73
2023/03/25 23:12:41;;;;;;;3.70;2.13;;;;;;;10.94;48.26;99243.31;10420560;28;20205;-72
2023/03/25 23:17:43;;;;;;;3.10;2.80;;;;;;;10.90;48.90;99242.06;10417401;28;20684;-73
2023/03/25 23:22:45;;;;;;;6.53;3.37;;;;;;;10.08;49.56;99251.63;10428494;28;20492;-67
2023/03/25 23:27:49;;;;;;;4.93;2.90;;;;;;;10.06;49.35;99256.34;10418915;28;20570;-72
2023/03/25 23:32:50;;;;;;;5.17;2.73;;;;;;;10.89;48.75;99241.22;10418336;28;20241;-71
2023/03/25 23:37:53;;;;;;;4.87;2.80;;;;;;;11.33;47.61;99268.56;10419478;28;20200;-73
2023/03/25 23:42:54;;;;;;;6.83;2.90;;;;;;;10.92;48.33;99257.91;10428148;28;20224;-72
2023/03/25 23:47:56;;;;;;;4.73;2.43;;;;;;;12.67;45.17;99186.25;10405141;28;20244;-72
2023/03/25 23:53:00;;;;;;;4.70;2.40;;;;;;;12.02;46.45;99204.13;10435195;28;20312;-74
2023/03/25 23:58:02;;;;;;;4.03;2.70;;;;;;;12.09;45.54;99240.63;10427487;28;20243;-70
